createdAt,value
2018-04-02T15:50:40.403Z,25.3
2018-04-02T15:55:42.890Z,25
2018-04-02T16:00:45.327Z,24.3
2018-04-02T16:10:50.203Z,23
2018-04-02T16:25:57.534Z,20.9
2018-04-02T16:30:59.981Z,20.1
2018-04-02T16:36:02.452Z,19
2018-04-02T16:41:04.853Z,17.6
2018-04-02T16:46:07.372Z,16.7
2018-04-02T16:51:09.756Z,15.9
2018-04-02T16:56:12.220Z,14.9
2018-04-02T17:06:17.104Z,12.9
2018-04-02T17:11:19.525Z,12.3
2018-04-02T17:16:21.990Z,11.9
2018-04-02T17:21:24.411Z,11.6
2018-04-02T17:26:26.921Z,11.3
2018-04-02T17:31:29.321Z,10.9
2018-04-02T17:36:31.779Z,10.7
2018-04-02T17:41:34.217Z,10.3
2018-04-02T17:46:36.688Z,10
2018-04-02T17:51:39.707Z,9.8
2018-04-02T17:56:41.537Z,9.5
2018-04-02T18:01:43.976Z,9.4
2018-04-02T18:06:46.505Z,9.2
2018-04-02T18:11:48.884Z,9
2018-04-02T18:16:51.630Z,8.8
2018-04-02T18:21:53.762Z,8.7
2018-04-02T18:26:56.223Z,8.5
2018-04-02T18:31:58.718Z,8.4
2018-04-02T18:37:01.108Z,8.2
2018-04-02T18:42:03.606Z,8.1
2018-04-02T18:47:06.023Z,8.1
2018-04-02T18:52:08.474Z,7.9
2018-04-02T18:57:10.901Z,7.8
2018-04-02T19:02:13.369Z,7.8
2018-04-02T19:07:15.805Z,7.7
2018-04-02T19:12:18.287Z,7.7
2018-04-02T19:17:20.709Z,7.6
2018-04-02T19:22:23.165Z,7.6
2018-04-02T19:27:25.662Z,7.5
2018-04-02T19:32:28.109Z,7.5
2018-04-02T19:37:30.578Z,7.4
2018-04-02T19:42:33.047Z,7.4
2018-04-02T19:47:35.453Z,7.4
2018-04-02T19:52:37.885Z,7.4
2018-04-02T19:57:40.309Z,7.4
2018-04-02T20:02:42.758Z,7.3
2018-04-02T20:07:45.227Z,7.2
2018-04-02T20:12:47.651Z,7.2
2018-04-02T20:17:50.095Z,7.1
2018-04-02T20:22:52.626Z,7.1
2018-04-02T20:27:54.990Z,7
2018-04-02T20:32:57.493Z,7
2018-04-02T20:37:59.909Z,7
2018-04-02T20:43:02.370Z,7
2018-04-02T20:48:04.783Z,7
2018-04-02T20:53:07.281Z,7
2018-04-02T20:58:09.683Z,7
2018-04-02T21:03:12.208Z,7
2018-04-02T21:08:14.568Z,7
2018-04-02T21:13:17.060Z,7
2018-04-02T21:18:19.460Z,7
2018-04-02T21:23:21.973Z,7.1
2018-04-02T21:28:24.370Z,7.2
2018-04-02T21:33:26.790Z,7.2
2018-04-02T21:38:29.254Z,7.2
2018-04-02T21:43:31.718Z,7.2
2018-04-02T21:48:34.188Z,7.2
2018-04-02T21:53:36.581Z,7.3
2018-04-02T21:58:39.054Z,7.3
2018-04-02T22:03:41.484Z,7.3
2018-04-02T22:08:43.963Z,7.3
2018-04-02T22:13:46.400Z,7.4
2018-04-02T22:23:51.303Z,7.3
2018-04-02T22:28:53.733Z,7.3
2018-04-02T22:33:56.180Z,7.3
2018-04-02T22:38:58.640Z,7.2
2018-04-02T22:44:01.100Z,7.2
2018-04-02T22:49:03.513Z,7.3
2018-04-02T22:54:05.980Z,7.3
2018-04-02T22:59:08.414Z,7.3
2018-04-02T23:04:10.877Z,7.3
2018-04-02T23:09:13.330Z,7.4
2018-04-02T23:14:15.761Z,7.4
2018-04-02T23:19:18.203Z,7.4
2018-04-02T23:24:20.709Z,7.4
2018-04-02T23:29:23.099Z,7.4
2018-04-02T23:34:25.591Z,7.5
2018-04-02T23:39:27.994Z,7.5
2018-04-02T23:44:30.453Z,7.5
2018-04-02T23:49:32.890Z,7.5
2018-04-02T23:54:35.363Z,7.5
2018-04-02T23:59:37.793Z,7.6
